createdAt,value
2023-02-24T00:02:15.256Z,7.93
2023-02-24T00:04:42.149Z,8.57
2023-02-24T00:07:10.738Z,7.67
2023-02-24T00:09:38.056Z,8.43
2023-02-24T00:12:07.869Z,6.13
2023-02-24T00:14:37.765Z,7.10
2023-02-24T00:17:05.570Z,7.80
2023-02-24T00:19:32.202Z,9.40
2023-02-24T00:21:58.948Z,9.73
2023-02-24T00:24:26.204Z,8.77
2023-02-24T00:26:57.939Z,6.83
2023-02-24T00:29:25.630Z,7.47
2023-02-24T00:31:57.551Z,7.53
2023-02-24T00:34:24.852Z,8.53
2023-02-24T00:36:51.505Z,10.13
2023-02-24T00:39:18.144Z,7.33
2023-02-24T00:41:45.229Z,8.07
2023-02-24T00:44:14.265Z,9.27
2023-02-24T00:46:44.208Z,10.60
2023-02-24T00:49:14.995Z,8.83
2023-02-24T00:51:44.241Z,8.73
2023-02-24T00:54:11.662Z,7.87
2023-02-24T00:56:38.352Z,8.17
2023-02-24T00:59:05.095Z,8.50
2023-02-24T01:01:33.374Z,7.40
2023-02-24T01:04:01.851Z,9.40
2023-02-24T01:06:29.191Z,10.07
2023-02-24T01:08:57.329Z,8.43
2023-02-24T01:11:26.908Z,7.80
2023-02-24T01:13:53.935Z,8.97
2023-02-24T01:16:20.641Z,7.60
2023-02-24T01:18:47.987Z,7.33
2023-02-24T01:21:16.957Z,8.33
2023-02-24T01:23:48.586Z,7.93
2023-02-24T01:26:16.543Z,9.23
2023-02-24T01:28:43.927Z,8.67
2023-02-24T01:31:10.694Z,9.40
2023-02-24T01:33:37.310Z,9.00
2023-02-24T01:36:11.806Z,7.87
2023-02-24T01:38:39.130Z,8.20
2023-02-24T01:41:06.207Z,8.57
2023-02-24T01:43:33.574Z,7.60
2023-02-24T01:46:00.172Z,8.47
2023-02-24T01:48:27.763Z,9.53
2023-02-24T01:50:54.525Z,9.67
2023-02-24T01:53:21.184Z,7.67
2023-02-24T01:55:50.291Z,7.90
2023-02-24T01:58:28.773Z,8.63
2023-02-24T02:00:56.193Z,10.43
2023-02-24T02:03:29.763Z,10.13
2023-02-24T02:06:04.800Z,8.60
2023-02-24T02:08:32.750Z,8.73
2023-02-24T02:11:04.426Z,9.67
2023-02-24T02:13:35.353Z,9.03
2023-02-24T02:16:12.189Z,11.00
2023-02-24T02:18:52.348Z,10.57
2023-02-24T02:21:28.211Z,9.07
2023-02-24T02:24:00.669Z,8.97
2023-02-24T02:26:45.729Z,10.23
2023-02-24T02:29:45.465Z,10.97
2023-02-24T02:32:30.698Z,11.23
2023-02-24T02:35:01.449Z,10.70
2023-02-24T02:37:34.166Z,9.20
2023-02-24T02:40:10.712Z,9.43
2023-02-24T02:42:49.086Z,11.83
2023-02-24T02:45:24.650Z,12.27
2023-02-24T02:48:06.734Z,11.73
2023-02-24T02:50:48.404Z,12.33
2023-02-24T02:53:24.312Z,13.90
2023-02-24T02:56:03.086Z,12.70
2023-02-24T02:58:34.191Z,12.10
2023-02-24T03:01:03.029Z,13.47
2023-02-24T03:03:38.833Z,12.27
2023-02-24T03:06:16.803Z,11.73
2023-02-24T03:08:53.216Z,13.80
2023-02-24T03:11:22.404Z,17.03
2023-02-24T03:13:52.662Z,14.50
2023-02-24T03:16:22.264Z,15.00
2023-02-24T03:18:58.258Z,15.60
2023-02-24T03:21:37.026Z,16.83
2023-02-24T03:24:04.800Z,16.97
2023-02-24T03:26:33.308Z,16.93
2023-02-24T03:29:21.327Z,16.83
2023-02-24T03:32:08.762Z,14.67
2023-02-24T03:34:53.801Z,17.13
2023-02-24T03:37:21.189Z,15.40
2023-02-24T03:39:47.882Z,17.83
2023-02-24T03:42:21.917Z,17.47
2023-02-24T03:44:49.552Z,15.43
2023-02-24T03:47:17.893Z,17.20
2023-02-24T03:49:44.588Z,19.20
2023-02-24T03:52:32.590Z,19.37
2023-02-24T03:55:18.518Z,17.43
2023-02-24T03:58:07.215Z,18.70
2023-02-24T04:00:55.654Z,20.80
2023-02-24T04:03:28.409Z,19.03
2023-02-24T04:06:18.390Z,19.93
2023-02-24T04:09:00.972Z,20.83
2023-02-24T04:11:36.712Z,19.97
2023-02-24T04:14:16.532Z,19.63
2023-02-24T04:16:57.439Z,21.13
2023-02-24T04:19:27.594Z,20.33
2023-02-24T04:21:56.016Z,22.00
2023-02-24T04:24:30.062Z,20.93
2023-02-24T04:27:00.311Z,23.63
2023-02-24T04:29:32.232Z,25.40
2023-02-24T04:32:05.183Z,23.73
2023-02-24T04:34:32.388Z,22.53
2023-02-24T04:37:00.350Z,22.17
2023-02-24T04:39:27.230Z,21.87
2023-02-24T04:41:56.068Z,15.23
2023-02-24T04:44:23.350Z,16.30
2023-02-24T04:46:51.236Z,17.97
2023-02-24T04:49:19.740Z,14.77
2023-02-24T04:51:46.901Z,17.03
2023-02-24T04:54:16.522Z,16.37
2023-02-24T04:56:44.458Z,14.13
2023-02-24T04:59:11.735Z,15.53
2023-02-24T05:01:38.336Z,17.63
2023-02-24T05:04:08.741Z,16.43
2023-02-24T05:06:36.364Z,15.83
2023-02-24T05:09:03.144Z,17.67
2023-02-24T05:11:29.725Z,14.23
2023-02-24T05:13:56.690Z,17.63
2023-02-24T05:16:23.947Z,15.57
2023-02-24T05:18:50.783Z,13.80
2023-02-24T05:21:17.854Z,16.40
2023-02-24T05:23:46.490Z,16.70
2023-02-24T05:26:16.744Z,15.17
2023-02-24T05:28:45.942Z,14.57
2023-02-24T05:31:24.374Z,15.20
2023-02-24T05:33:54.005Z,10.90
2023-02-24T05:36:21.963Z,13.20
2023-02-24T05:38:51.112Z,10.90
2023-02-24T05:41:19.084Z,12.70
2023-02-24T05:43:51.601Z,14.63
2023-02-24T05:46:28.913Z,13.33
2023-02-24T05:48:57.242Z,15.87
2023-02-24T05:51:29.841Z,15.40
2023-02-24T05:53:58.711Z,12.67
2023-02-24T05:56:25.309Z,14.07
2023-02-24T05:58:54.485Z,13.07
2023-02-24T06:01:21.581Z,13.30
2023-02-24T06:03:48.485Z,13.43
2023-02-24T06:06:17.956Z,12.57
2023-02-24T06:08:44.786Z,10.57
2023-02-24T06:11:11.903Z,10.37
2023-02-24T06:13:38.902Z,12.73
2023-02-24T06:16:06.727Z,9.77
2023-02-24T06:18:33.505Z,9.13
2023-02-24T06:21:03.463Z,11.43
2023-02-24T06:23:30.190Z,10.57
2023-02-24T06:26:02.096Z,9.07
2023-02-24T06:28:28.789Z,10.77
2023-02-24T06:30:55.475Z,9.83
2023-02-24T06:33:23.003Z,9.10
2023-02-24T06:35:49.853Z,11.60
2023-02-24T06:38:16.552Z,10.33
2023-02-24T06:40:43.120Z,11.07
2023-02-24T06:43:09.908Z,10.20
2023-02-24T06:45:36.719Z,9.10
2023-02-24T06:48:04.214Z,8.23
2023-02-24T06:50:31.051Z,10.13
2023-02-24T06:52:57.770Z,8.20
2023-02-24T06:55:24.368Z,8.67
2023-02-24T06:57:57.986Z,11.20
2023-02-24T07:00:30.214Z,8.43
2023-02-24T07:02:56.891Z,10.20
2023-02-24T07:05:23.516Z,9.23
2023-02-24T07:07:50.101Z,9.13
2023-02-24T07:10:17.012Z,10.00
2023-02-24T07:12:43.758Z,11.17
2023-02-24T07:15:10.521Z,8.70
2023-02-24T07:17:37.150Z,10.37
2023-02-24T07:20:04.096Z,8.33
2023-02-24T07:22:30.784Z,8.80
2023-02-24T07:24:57.397Z,8.37
2023-02-24T07:27:24.158Z,9.10
2023-02-24T07:29:53.322Z,9.10
2023-02-24T07:32:21.595Z,7.27
2023-02-24T07:34:48.377Z,9.17
2023-02-24T07:37:14.999Z,6.47
2023-02-24T07:39:41.562Z,7.63
2023-02-24T07:42:10.034Z,8.20
2023-02-24T07:44:44.270Z,7.17
2023-02-24T07:47:11.450Z,7.03
2023-02-24T07:49:39.691Z,8.90
2023-02-24T07:52:06.488Z,6.80
2023-02-24T07:54:33.217Z,6.70
2023-02-24T07:57:01.056Z,7.70
2023-02-24T07:59:33.188Z,8.90
2023-02-24T08:02:01.025Z,9.53
2023-02-24T08:04:30.677Z,8.60
2023-02-24T08:06:57.860Z,8.40
2023-02-24T08:09:26.969Z,6.70
2023-02-24T08:11:55.552Z,5.97
2023-02-24T08:14:27.958Z,8.30
2023-02-24T08:16:56.315Z,6.20
2023-02-24T08:19:22.939Z,8.87
2023-02-24T08:21:52.870Z,8.77
2023-02-24T08:24:24.300Z,6.63
2023-02-24T08:26:53.823Z,6.73
2023-02-24T08:29:20.522Z,6.47
2023-02-24T08:31:47.460Z,8.23
2023-02-24T08:34:14.321Z,5.03
2023-02-24T08:36:41.007Z,8.73
2023-02-24T08:39:08.002Z,6.17
2023-02-24T08:41:34.877Z,6.13
2023-02-24T08:44:01.533Z,6.07
2023-02-24T08:46:28.260Z,5.97
2023-02-24T08:48:57.659Z,6.03
2023-02-24T08:51:28.394Z,6.07
2023-02-24T08:54:00.662Z,7.47
2023-02-24T08:56:30.436Z,6.43
2023-02-24T08:59:00.021Z,7.10
2023-02-24T09:01:33.112Z,5.30
2023-02-24T09:04:01.571Z,7.53
2023-02-24T09:06:37.992Z,5.60
2023-02-24T09:09:05.346Z,5.40
2023-02-24T09:11:31.931Z,5.70
2023-02-24T09:13:58.712Z,5.67
2023-02-24T09:16:25.457Z,6.37
2023-02-24T09:18:52.281Z,7.50
2023-02-24T09:21:19.183Z,6.03
2023-02-24T09:23:46.187Z,4.80
2023-02-24T09:26:15.850Z,5.87
2023-02-24T09:28:42.655Z,6.77
2023-02-24T09:31:09.409Z,5.60
2023-02-24T09:33:38.280Z,5.47
2023-02-24T09:36:11.083Z,7.17
2023-02-24T09:38:38.778Z,5.97
2023-02-24T09:41:23.712Z,5.37
2023-02-24T09:43:50.458Z,5.90
2023-02-24T09:46:17.477Z,7.60
2023-02-24T09:49:17.833Z,5.87
2023-02-24T09:51:45.371Z,6.13
2023-02-24T09:54:18.932Z,4.97
2023-02-24T09:57:01.827Z,5.37
2023-02-24T09:59:36.422Z,5.47
2023-02-24T10:02:24.336Z,4.70
2023-02-24T10:05:07.358Z,4.70
2023-02-24T10:07:40.682Z,5.90
2023-02-24T10:10:31.759Z,5.23
2023-02-24T10:24:40.725Z,4.27
2023-02-24T10:27:26.042Z,6.93
2023-02-24T10:30:08.109Z,4.80
2023-02-24T10:32:37.684Z,4.37
2023-02-24T10:35:04.566Z,6.67
2023-02-24T10:37:31.248Z,4.73
2023-02-24T10:40:00.250Z,5.30
2023-02-24T10:42:30.881Z,4.60
2023-02-24T10:45:24.652Z,4.47
2023-02-24T10:47:57.011Z,4.33
2023-02-24T10:50:27.451Z,4.77
2023-02-24T10:53:03.087Z,4.43
2023-02-24T10:55:47.810Z,5.30
2023-02-24T10:58:35.482Z,6.63
2023-02-24T11:01:17.054Z,5.27
2023-02-24T11:03:54.225Z,4.50
2023-02-24T11:06:22.755Z,4.57
2023-02-24T11:08:57.467Z,4.40
2023-02-24T11:11:34.693Z,4.47
2023-02-24T11:14:03.075Z,6.10
2023-02-24T11:16:39.833Z,5.57
2023-02-24T11:19:06.802Z,5.07
2023-02-24T11:21:33.692Z,6.83
2023-02-24T11:24:01.110Z,4.67
2023-02-24T11:26:40.509Z,5.37
2023-02-24T11:29:26.585Z,6.37
2023-02-24T11:31:59.379Z,7.17
2023-02-24T11:34:38.594Z,5.17
2023-02-24T11:37:34.920Z,5.00
2023-02-24T11:40:13.858Z,5.90
2023-02-24T11:42:46.401Z,5.60
2023-02-24T11:45:27.134Z,4.00
2023-02-24T11:48:04.318Z,6.50
2023-02-24T11:50:37.234Z,4.70
2023-02-24T11:53:13.619Z,7.33
2023-02-24T11:55:45.314Z,4.90
2023-02-24T11:58:23.086Z,5.37
2023-02-24T12:01:14.075Z,4.73
2023-02-24T12:04:01.205Z,5.73
2023-02-24T12:06:34.410Z,5.50
2023-02-24T12:09:11.997Z,5.10
2023-02-24T12:11:59.990Z,4.90
2023-02-24T12:14:47.465Z,5.17
2023-02-24T12:17:22.154Z,4.40
2023-02-24T12:19:58.255Z,5.43
2023-02-24T12:22:32.311Z,5.07
2023-02-24T12:24:58.990Z,4.50
2023-02-24T12:27:46.154Z,5.30
2023-02-24T12:30:44.669Z,5.23
2023-02-24T12:33:37.868Z,5.40
2023-02-24T12:36:22.576Z,5.23
2023-02-24T12:39:13.427Z,4.67
2023-02-24T12:41:59.990Z,3.83
2023-02-24T12:44:52.491Z,5.17
2023-02-24T12:47:37.615Z,4.10
2023-02-24T12:50:23.439Z,3.80
2023-02-24T12:52:57.117Z,6.37
2023-02-24T12:55:34.178Z,4.97
2023-02-24T12:58:16.014Z,7.33
2023-02-24T13:01:09.949Z,5.20
2023-02-24T13:03:48.703Z,4.63
2023-02-24T13:06:25.075Z,5.60
2023-02-24T13:09:03.465Z,5.13
2023-02-24T13:11:48.545Z,6.90
2023-02-24T13:14:30.452Z,8.30
2023-02-24T13:17:24.587Z,5.43
2023-02-24T13:19:52.479Z,4.77
2023-02-24T13:22:20.841Z,6.03
2023-02-24T13:25:00.169Z,5.67
2023-02-24T13:27:38.970Z,4.33
2023-02-24T13:30:11.920Z,5.93
2023-02-24T13:32:42.626Z,4.40
2023-02-24T13:35:15.554Z,5.83
2023-02-24T13:37:44.924Z,3.90
2023-02-24T13:40:21.085Z,5.20
2023-02-24T13:42:57.039Z,4.57
2023-02-24T13:45:30.586Z,5.13
2023-02-24T13:48:15.711Z,5.07
2023-02-24T13:51:01.775Z,5.23
2023-02-24T13:54:02.743Z,4.90
2023-02-24T13:56:32.566Z,5.70
2023-02-24T13:59:09.582Z,6.00
2023-02-24T14:01:49.468Z,6.30
2023-02-24T14:04:29.792Z,7.00
2023-02-24T14:07:02.312Z,5.80
2023-02-24T14:09:39.856Z,6.63
2023-02-24T14:12:14.738Z,6.00
2023-02-24T14:14:44.343Z,8.30
2023-02-24T14:17:40.168Z,6.13
2023-02-24T14:20:09.953Z,8.57
2023-02-24T14:22:45.477Z,8.00
2023-02-24T14:25:13.164Z,8.23
2023-02-24T14:27:40.117Z,9.00
2023-02-24T14:30:08.350Z,10.17
2023-02-24T14:32:35.329Z,9.03
2023-02-24T14:35:02.110Z,9.30
2023-02-24T14:37:31.724Z,6.97
2023-02-24T14:40:00.369Z,10.80
2023-02-24T14:42:27.762Z,5.33
2023-02-24T14:44:57.689Z,5.03
2023-02-24T14:47:27.095Z,5.80
2023-02-24T14:49:55.099Z,7.07
2023-02-24T14:52:33.853Z,6.00
2023-02-24T14:55:22.900Z,5.70
2023-02-24T14:58:00.782Z,5.77
2023-02-24T15:00:32.544Z,5.90
2023-02-24T15:03:41.060Z,5.73
2023-02-24T15:06:16.097Z,6.13
2023-02-24T15:08:50.800Z,5.90
2023-02-24T15:11:17.461Z,6.07
2023-02-24T15:14:07.161Z,6.73
2023-02-24T15:16:41.514Z,5.70
2023-02-24T15:19:36.230Z,6.70
2023-02-24T15:22:26.691Z,6.20
2023-02-24T15:25:10.996Z,5.83
2023-02-24T15:27:37.794Z,5.83
2023-02-24T15:30:24.886Z,8.53
2023-02-24T15:33:04.606Z,5.63
2023-02-24T15:35:31.679Z,5.13
2023-02-24T15:38:01.565Z,5.13
2023-02-24T15:40:29.803Z,5.10
2023-02-24T15:43:09.962Z,5.37
2023-02-24T15:45:39.182Z,4.50
2023-02-24T15:48:23.068Z,6.03
2023-02-24T15:50:49.873Z,5.00
2023-02-24T15:53:16.972Z,4.27
2023-02-24T15:55:44.671Z,4.47
2023-02-24T15:58:16.522Z,5.97
2023-02-24T16:00:43.563Z,4.63
2023-02-24T16:03:10.243Z,5.23
2023-02-24T16:05:38.695Z,4.97
2023-02-24T16:08:05.455Z,5.43
2023-02-24T16:10:32.322Z,5.40
2023-02-24T16:13:02.379Z,4.33
2023-02-24T16:15:35.500Z,6.23
2023-02-24T16:18:02.670Z,4.33
2023-02-24T16:20:30.767Z,4.53
2023-02-24T16:22:59.607Z,4.07
2023-02-24T16:25:27.439Z,3.70
2023-02-24T16:27:54.829Z,5.60
2023-02-24T16:30:22.930Z,4.73
2023-02-24T16:32:50.130Z,4.07
2023-02-24T16:35:16.926Z,3.90
2023-02-24T16:37:46.297Z,3.37
2023-02-24T16:40:19.596Z,3.67
2023-02-24T16:42:48.182Z,3.30
2023-02-24T16:45:14.914Z,3.70
2023-02-24T16:47:43.532Z,3.67
2023-02-24T16:50:24.954Z,3.47
2023-02-24T16:52:51.895Z,3.80
2023-02-24T16:55:18.971Z,3.33
2023-02-24T16:57:45.965Z,3.83
2023-02-24T17:00:14.863Z,4.10
2023-02-24T17:02:43.913Z,4.73
2023-02-24T17:05:19.610Z,4.47
2023-02-24T17:07:49.319Z,4.57
2023-02-24T17:10:17.516Z,4.63
2023-02-24T17:12:45.077Z,4.83
2023-02-24T17:15:17.182Z,5.17
2023-02-24T17:17:44.110Z,5.60
2023-02-24T17:20:20.445Z,4.17
2023-02-24T17:22:47.607Z,4.20
2023-02-24T17:25:16.447Z,4.93
2023-02-24T17:27:43.314Z,6.77
2023-02-24T17:30:15.725Z,4.30
2023-02-24T17:32:42.480Z,4.33
2023-02-24T17:35:09.693Z,5.10
2023-02-24T17:37:36.537Z,5.70
2023-02-24T17:40:06.418Z,5.73
2023-02-24T17:42:33.803Z,5.27
2023-02-24T17:45:00.591Z,6.10
2023-02-24T17:47:27.880Z,4.80
2023-02-24T17:49:54.540Z,5.03
2023-02-24T17:52:21.337Z,6.87
2023-02-24T17:54:47.922Z,5.47
2023-02-24T17:57:14.903Z,5.10
2023-02-24T17:59:45.279Z,6.40
2023-02-24T18:02:13.475Z,5.77
2023-02-24T18:04:40.172Z,5.93
2023-02-24T18:07:08.077Z,5.23
2023-02-24T18:09:34.711Z,4.97
2023-02-24T18:12:01.580Z,5.23
2023-02-24T18:14:28.376Z,6.07
2023-02-24T18:16:55.120Z,5.53
2023-02-24T18:19:21.750Z,5.93
2023-02-24T18:21:48.499Z,5.87
2023-02-24T18:24:15.101Z,6.07
2023-02-24T18:26:41.879Z,7.07
2023-02-24T18:29:08.484Z,6.17
2023-02-24T18:31:35.668Z,10.23
2023-02-24T18:34:02.412Z,7.23
2023-02-24T18:36:29.109Z,6.57
2023-02-24T18:38:58.340Z,7.63
2023-02-24T18:41:25.287Z,7.00
2023-02-24T18:43:56.000Z,6.97
2023-02-24T18:46:23.831Z,7.07
2023-02-24T18:48:51.670Z,8.27
2023-02-24T18:51:23.751Z,7.13
2023-02-24T18:53:52.776Z,9.10
2023-02-24T18:56:23.693Z,8.50
2023-02-24T18:58:54.948Z,8.60
2023-02-24T19:01:28.969Z,8.83
2023-02-24T19:03:56.735Z,8.50
2023-02-24T19:06:24.876Z,8.10
2023-02-24T19:09:07.226Z,8.77
2023-02-24T19:11:34.341Z,9.00
2023-02-24T19:14:00.967Z,8.83
2023-02-24T19:16:28.526Z,8.77
2023-02-24T19:18:57.248Z,8.63
2023-02-24T19:21:26.494Z,10.33
2023-02-24T19:23:53.766Z,7.53
2023-02-24T19:26:24.226Z,9.80
2023-02-24T19:28:52.529Z,9.70
2023-02-24T19:31:23.056Z,8.90
2023-02-24T19:33:54.301Z,10.23
2023-02-24T19:36:22.498Z,10.43
2023-02-24T19:38:49.818Z,8.77
2023-02-24T19:41:16.519Z,8.73
2023-02-24T19:43:45.657Z,8.57
2023-02-24T19:46:13.882Z,11.20
2023-02-24T19:48:41.356Z,9.90
2023-02-24T19:51:27.046Z,9.17
2023-02-24T19:53:55.809Z,10.37
2023-02-24T19:56:27.767Z,9.43
2023-02-24T19:58:56.438Z,10.27
2023-02-24T20:01:24.498Z,10.43
2023-02-24T20:03:57.557Z,10.30
2023-02-24T20:06:31.856Z,10.43
2023-02-24T20:09:00.300Z,10.53
2023-02-24T20:11:29.099Z,11.57
2023-02-24T20:13:59.632Z,12.17
2023-02-24T20:16:27.750Z,12.57
2023-02-24T20:18:55.272Z,12.73
2023-02-24T20:21:32.670Z,12.77
2023-02-24T20:24:04.950Z,14.07
2023-02-24T20:26:35.450Z,11.30
2023-02-24T20:29:02.700Z,11.10
2023-02-24T20:31:30.172Z,12.93
2023-02-24T20:33:57.034Z,12.03
2023-02-24T20:36:28.402Z,14.70
2023-02-24T20:38:57.696Z,12.80
2023-02-24T20:41:24.846Z,11.43
2023-02-24T20:43:51.547Z,12.50
2023-02-24T20:46:20.354Z,12.63
2023-02-24T20:48:47.280Z,12.63
2023-02-24T20:51:13.985Z,12.80
2023-02-24T20:53:54.589Z,13.73
2023-02-24T20:56:23.675Z,13.30
2023-02-24T20:58:53.638Z,12.50
2023-02-24T21:01:21.121Z,13.00
2023-02-24T21:03:48.446Z,12.37
2023-02-24T21:06:17.122Z,10.13
2023-02-24T21:08:44.432Z,10.47
2023-02-24T21:11:12.774Z,10.10
2023-02-24T21:13:41.045Z,9.30
2023-02-24T21:16:08.599Z,9.87
2023-02-24T21:18:35.926Z,10.33
2023-02-24T21:21:02.575Z,10.00
2023-02-24T21:23:29.188Z,9.87
2023-02-24T21:25:55.846Z,9.33
2023-02-24T21:28:23.150Z,9.70
2023-02-24T21:30:50.408Z,8.93
2023-02-24T21:33:19.217Z,11.23
2023-02-24T21:36:06.653Z,9.63
2023-02-24T21:38:34.202Z,8.10
2023-02-24T21:41:08.838Z,9.83
2023-02-24T21:43:35.546Z,9.27
2023-02-24T21:46:03.496Z,10.00
2023-02-24T21:48:30.261Z,9.37
2023-02-24T21:50:58.611Z,8.70
2023-02-24T21:53:26.401Z,8.13
2023-02-24T21:56:23.866Z,7.17
2023-02-24T21:58:53.164Z,6.90
2023-02-24T22:01:25.596Z,6.23
2023-02-24T22:03:58.768Z,8.37
2023-02-24T22:06:31.338Z,6.30
2023-02-24T22:09:00.186Z,7.97
2023-02-24T22:11:40.973Z,6.13
2023-02-24T22:14:11.655Z,7.00
2023-02-24T22:16:42.429Z,9.63
2023-02-24T22:19:20.730Z,8.37
2023-02-24T22:21:53.948Z,7.13
2023-02-24T22:24:23.606Z,8.77
2023-02-24T22:26:53.385Z,4.87
2023-02-24T22:29:29.373Z,4.70
2023-02-24T22:31:58.029Z,4.20
2023-02-24T22:34:32.941Z,6.63
2023-02-24T22:37:01.070Z,3.13
2023-02-24T22:39:29.887Z,3.90
2023-02-24T22:42:04.369Z,3.40
2023-02-24T22:44:42.821Z,5.47
2023-02-24T22:47:14.494Z,4.90
2023-02-24T22:49:43.123Z,6.00
2023-02-24T22:52:17.403Z,6.27
2023-02-24T22:54:47.951Z,6.23
2023-02-24T22:57:17.430Z,5.03
2023-02-24T22:59:47.807Z,8.53
2023-02-24T23:02:16.033Z,7.67
2023-02-24T23:04:43.332Z,6.93
2023-02-24T23:07:10.779Z,7.87
2023-02-24T23:09:37.398Z,8.03
2023-02-24T23:12:04.420Z,9.83
2023-02-24T23:14:31.378Z,10.53
2023-02-24T23:16:59.029Z,8.60
2023-02-24T23:19:38.425Z,12.17
2023-02-24T23:22:06.653Z,9.27
2023-02-24T23:24:33.401Z,9.83
2023-02-24T23:27:00.285Z,5.50
2023-02-24T23:29:27.338Z,6.80
2023-02-24T23:31:54.269Z,9.43
2023-02-24T23:34:21.130Z,10.00
2023-02-24T23:36:48.046Z,8.80
2023-02-24T23:39:18.145Z,12.20
2023-02-24T23:41:45.310Z,6.23
2023-02-24T23:44:11.964Z,9.30
2023-02-24T23:46:38.609Z,7.87
2023-02-24T23:49:06.383Z,7.20
2023-02-24T23:51:47.080Z,8.33
2023-02-24T23:54:15.619Z,9.47
2023-02-24T23:56:42.239Z,6.63
2023-02-24T23:59:08.984Z,6.90
